Terminal Aerodrome Forecast
Issued by NWS

Home | Current Version | Previous Version | Graphics & Text | Print | Product List | Glossary Off
Versions: 1 2 3 4 5 6 7 8 9 10 11 12 13 14 15 16 17

000
FTUS43 KDDC 170700 AAA
TAFGCK
TAF AMD
KGCK 170746Z 1708/1806 06011KT P6SM OVC100
     FM171000 09012KT 6SM -SHRA SCT015 BKN050
     FM171400 13010KT P6SM BKN100=

USA.gov is the U.S. government's official web portal to all federal, state and local government web resources and services.